Time;durP1;ratioP1;P1;durP2;ratioP2;P2;SDS_P1;SDS_P2;PMS_P1;PMS_P2;Temp;Humidity;BMP_temperature;BMP_pressure;BME280_temperature;BME280_humidity;BME280_pressure;Samples;Min_cycle;Max_cycle;Signal;HPM_P1;HPM_P2
2023/05/13 00:01:17;;;;;;;22.15;13.88;;;333.40;2329.60;;;;;;5084172;28;20617;-85
2023/05/13 00:03:43;;;;;;;17.13;12.73;;;333.40;2329.60;;;;;;5087129;28;20075;-83
2023/05/13 00:06:08;;;;;;;17.55;12.75;;;333.30;2329.60;;;;;;5110183;28;20032;-85
2023/05/13 00:08:35;;;;;;;24.55;13.70;;;333.30;2329.60;;;;;;5109569;28;20445;-85
2023/05/13 00:11:01;;;;;;;16.65;12.52;;;333.30;2329.60;;;;;;5108571;28;20114;-84
2023/05/13 00:13:27;;;;;;;17.80;13.48;;;333.30;2329.60;;;;;;5102317;28;20032;-85
2023/05/13 00:15:53;;;;;;;18.77;14.18;;;333.40;2329.60;;;;;;5102955;28;20491;-86
2023/05/13 00:18:18;;;;;;;21.00;16.55;;;333.60;2329.60;;;;;;5103724;28;20130;-85
2023/05/13 00:20:44;;;;;;;21.42;15.80;;;333.70;2329.60;;;;;;5101891;28;20024;-87
2023/05/13 00:23:10;;;;;;;18.17;15.45;;;358.40;2329.60;;;;;;5120092;28;20035;-86
2023/05/13 00:25:36;;;;;;;20.85;14.13;;;358.40;2329.60;;;;;;5103232;28;20036;-86
2023/05/13 00:28:03;;;;;;;17.05;14.15;;;333.70;2329.60;;;;;;5120351;28;20094;-85
2023/05/13 00:30:29;;;;;;;19.90;15.63;;;333.70;2329.60;;;;;;5121706;27;20042;-85
2023/05/13 00:32:55;;;;;;;19.92;15.00;;;333.50;2329.60;;;;;;5101471;27;20051;-86
2023/05/13 00:35:21;;;;;;;19.60;13.70;;;333.50;2329.60;;;;;;5100861;28;20044;-85
2023/05/13 00:37:47;;;;;;;22.90;14.32;;;333.60;2329.60;;;;;;5099988;28;20020;-86
2023/05/13 00:40:25;;;;;;;16.98;13.23;;;333.60;2329.60;;;;;;5101630;28;20031;-85
2023/05/13 00:42:51;;;;;;;16.30;12.68;;;333.70;2329.60;;;;;;5086991;28;20035;-87
2023/05/13 00:45:17;;;;;;;15.07;12.18;;;333.70;2329.60;;;;;;5093994;28;20036;-84
2023/05/13 00:47:43;;;;;;;20.23;14.60;;;358.40;2329.60;;;;;;5098432;28;20020;-83
2023/05/13 00:50:10;;;;;;;18.63;13.77;;;358.40;2329.60;;;;;;5096491;28;20467;-82
2023/05/13 00:52:41;;;;;;;22.70;15.57;;;358.60;2329.60;;;;;;5097582;28;20024;-84
2023/05/13 00:55:08;;;;;;;21.33;14.20;;;358.40;2329.60;;;;;;5098605;28;20036;-83
2023/05/13 00:57:35;;;;;;;23.27;14.10;;;358.50;2329.60;;;;;;5097826;28;20024;-85
2023/05/13 01:00:02;;;;;;;16.10;12.93;;;358.50;2329.60;;;;;;5098979;28;20024;-84
2023/05/13 01:02:45;;;;;;;21.08;15.00;;;358.40;2329.60;;;;;;5098990;28;20054;-85
2023/05/13 01:05:30;;;;;;;18.52;14.23;;;358.50;2329.60;;;;;;5098088;28;20046;-85
2023/05/13 01:08:03;;;;;;;16.98;13.30;;;358.40;2329.60;;;;;;5079834;28;20036;-85
2023/05/13 01:10:48;;;;;;;19.48;14.05;;;358.40;2329.60;;;;;;5080177;28;20083;-85
2023/05/13 01:13:19;;;;;;;21.10;13.10;;;358.40;2329.60;;;;;;5099465;28;20028;-85
2023/05/13 01:15:55;;;;;;;23.40;13.77;;;358.40;2329.60;;;;;;5089467;28;20024;-85
2023/05/13 01:18:30;;;;;;;16.98;13.10;;;333.60;2329.60;;;;;;5098750;28;20412;-84
2023/05/13 01:21:00;;;;;;;15.95;12.57;;;333.70;2329.60;;;;;;5081319;28;20039;-85
2023/05/13 01:23:26;;;;;;;16.88;11.05;;;333.50;2329.60;;;;;;5091765;28;20082;-85
2023/05/13 01:25:51;;;;;;;14.55;11.80;;;333.60;2329.60;;;;;;5084809;28;20024;-84
2023/05/13 01:28:18;;;;;;;13.82;10.65;;;333.50;2329.60;;;;;;5090872;28;20483;-85
2023/05/13 01:30:45;;;;;;;13.40;10.32;;;333.40;2329.60;;;;;;5093361;28;20096;-85
2023/05/13 01:33:11;;;;;;;15.13;11.32;;;333.40;2329.60;;;;;;5096984;28;20463;-86
2023/05/13 01:35:37;;;;;;;18.15;11.73;;;333.50;2329.60;;;;;;5099679;28;20031;-85
2023/05/13 01:38:04;;;;;;;16.75;11.55;;;333.40;2329.60;;;;;;5095846;28;20031;-87
2023/05/13 01:40:31;;;;;;;20.52;14.18;;;333.50;2329.60;;;;;;5098538;28;20414;-87
2023/05/13 01:42:57;;;;;;;18.02;13.82;;;333.40;2329.60;;;;;;5097623;28;20020;-86
2023/05/13 01:45:23;;;;;;;21.13;14.18;;;333.70;2329.60;;;;;;5098282;28;20468;-86
2023/05/13 01:47:49;;;;;;;19.90;14.07;;;333.70;2329.60;;;;;;5097090;28;20516;-86
2023/05/13 01:50:14;;;;;;;17.48;13.18;;;333.70;2329.60;;;;;;5098127;28;20028;-86
2023/05/13 01:52:40;;;;;;;18.48;13.70;;;333.70;2329.60;;;;;;5091860;28;20028;-86
2023/05/13 01:55:06;;;;;;;19.70;13.98;;;333.70;2329.60;;;;;;5079146;28;20040;-86
2023/05/13 01:57:32;;;;;;;21.70;14.27;;;333.70;2329.60;;;;;;5081800;28;20125;-86
2023/05/13 01:59:58;;;;;;;22.70;15.55;;;333.70;2329.60;;;;;;5099881;28;20368;-86
2023/05/13 02:02:24;;;;;;;18.88;12.98;;;333.70;2329.60;;;;;;5098707;28;20028;-86
2023/05/13 02:04:50;;;;;;;22.02;13.05;;;333.60;2329.60;;;;;;5098950;28;20058;-86
2023/05/13 02:07:16;;;;;;;21.67;13.43;;;333.60;2329.60;;;;;;5099214;28;20024;-86
2023/05/13 02:09:43;;;;;;;19.42;12.73;;;333.70;2329.60;;;;;;5097102;28;20027;-86
2023/05/13 02:12:08;;;;;;;13.25;11.75;;;333.60;2329.60;;;;;;5098222;28;20464;-85
2023/05/13 02:14:34;;;;;;;16.52;12.40;;;333.70;2329.60;;;;;;5093836;28;20158;-86
2023/05/13 02:17:00;;;;;;;15.50;10.40;;;333.70;2329.60;;;;;;5100401;28;20024;-84
2023/05/13 02:19:26;;;;;;;14.90;10.82;;;358.40;2329.60;;;;;;5098791;28;20085;-86
2023/05/13 02:21:52;;;;;;;14.15;11.90;;;358.40;2329.60;;;;;;5099701;28;20119;-87
2023/05/13 02:24:18;;;;;;;18.60;11.05;;;333.70;2329.60;;;;;;5100260;28;20020;-86
2023/05/13 02:26:43;;;;;;;15.57;11.70;;;333.60;2329.60;;;;;;5099479;28;20553;-88
2023/05/13 02:29:09;;;;;;;17.60;12.02;;;333.60;2329.60;;;;;;5099830;28;20024;-85
2023/05/13 02:31:35;;;;;;;21.52;13.25;;;333.50;2329.60;;;;;;5099135;28;20020;-88
2023/05/13 02:34:02;;;;;;;15.23;10.52;;;333.40;2329.60;;;;;;5100233;28;20048;-87
2023/05/13 02:36:28;;;;;;;16.25;12.43;;;333.40;2329.60;;;;;;5098911;28;20421;-87
2023/05/13 02:38:53;;;;;;;19.67;12.38;;;333.50;2329.60;;;;;;5098652;28;20028;-86
2023/05/13 02:41:19;;;;;;;14.82;12.15;;;333.30;2329.60;;;;;;5097838;28;20085;-85
2023/05/13 02:43:45;;;;;;;13.95;10.85;;;333.40;2329.60;;;;;;5098615;28;20475;-87
2023/05/13 02:46:11;;;;;;;15.63;11.38;;;333.20;2329.60;;;;;;5102444;28;20028;-87
2023/05/13 02:48:37;;;;;;;12.25;10.18;;;333.30;2329.60;;;;;;5104691;28;20032;-88
2023/05/13 02:51:03;;;;;;;13.73;10.00;;;333.50;2329.60;;;;;;5104076;28;20056;-87
2023/05/13 02:53:28;;;;;;;12.80;9.63;;;333.50;2329.60;;;;;;5098906;28;20042;-85
2023/05/13 02:55:54;;;;;;;15.73;9.98;;;333.40;2329.60;;;;;;5103640;28;20024;-87
2023/05/13 02:58:20;;;;;;;18.90;9.82;;;333.40;2329.60;;;;;;5096623;28;20058;-85
2023/05/13 03:00:46;;;;;;;13.43;10.40;;;333.50;2329.60;;;;;;5095559;28;20056;-85
2023/05/13 03:03:12;;;;;;;10.93;9.05;;;333.60;2329.60;;;;;;5102850;28;20020;-85
2023/05/13 03:05:38;;;;;;;11.75;8.85;;;333.20;2329.60;;;;;;5101514;28;20044;-89
2023/05/13 03:08:04;;;;;;;14.32;9.85;;;333.10;2329.60;;;;;;5088536;28;20492;-87
2023/05/13 03:10:29;;;;;;;12.32;9.45;;;333.30;2329.60;;;;;;5081391;28;20029;-86
2023/05/13 03:12:55;;;;;;;11.48;8.93;;;333.40;2329.60;;;;;;5091372;28;20020;-86
2023/05/13 03:15:21;;;;;;;13.15;9.63;;;333.30;2329.60;;;;;;5118960;28;20040;-86
2023/05/13 03:17:47;;;;;;;14.02;9.90;;;333.10;2329.60;;;;;;5108516;28;20047;-85
2023/05/13 03:20:13;;;;;;;11.63;9.93;;;333.00;2329.60;;;;;;5097474;28;20382;-86
2023/05/13 03:22:39;;;;;;;13.73;10.80;;;333.10;2329.60;;;;;;5096088;28;20017;-87
2023/05/13 03:25:06;;;;;;;14.90;11.45;;;333.10;2329.60;;;;;;5080551;28;20483;-87
2023/05/13 03:27:32;;;;;;;15.25;10.90;;;333.20;2329.60;;;;;;5084268;28;20107;-86
2023/05/13 03:29:58;;;;;;;12.63;9.98;;;333.40;2329.60;;;;;;5102131;28;20051;-86
2023/05/13 03:32:29;;;;;;;12.88;10.48;;;333.40;2329.60;;;;;;5101011;28;20020;-86
2023/05/13 03:34:56;;;;;;;17.15;11.90;;;333.40;2329.60;;;;;;5102221;28;20043;-86
2023/05/13 03:37:23;;;;;;;14.02;11.98;;;333.50;2329.60;;;;;;5101281;28;20028;-86
2023/05/13 03:39:49;;;;;;;11.98;9.80;;;333.20;2329.60;;;;;;5101684;28;20028;-86
2023/05/13 03:42:15;;;;;;;12.02;10.23;;;333.50;2329.60;;;;;;5120235;28;20028;-86
2023/05/13 03:44:41;;;;;;;12.20;10.40;;;333.60;2329.60;;;;;;5102955;28;20035;-86
2023/05/13 03:47:07;;;;;;;12.55;9.93;;;333.60;2329.60;;;;;;5104774;28;20035;-87
2023/05/13 03:49:33;;;;;;;14.50;10.07;;;333.60;2329.60;;;;;;5121141;28;20073;-87
2023/05/13 03:51:58;;;;;;;12.18;9.85;;;333.70;2329.60;;;;;;5104796;28;20098;-86
2023/05/13 03:54:24;;;;;;;13.35;10.55;;;333.70;2329.60;;;;;;5121114;28;20089;-86
2023/05/13 03:56:50;;;;;;;13.55;10.60;;;333.70;2329.60;;;;;;5104790;28;20107;-86
2023/05/13 03:59:16;;;;;;;12.60;9.75;;;333.70;2329.60;;;;;;5099614;28;20038;-86
2023/05/13 04:01:42;;;;;;;14.00;11.07;;;333.70;2329.60;;;;;;5103358;28;20550;-86
2023/05/13 04:04:07;;;;;;;15.05;11.85;;;358.40;2329.60;;;;;;5102331;28;20123;-86
2023/05/13 04:06:33;;;;;;;15.35;11.70;;;333.70;2329.60;;;;;;5104147;28;20069;-87
2023/05/13 04:09:00;;;;;;;16.05;11.77;;;358.40;2329.60;;;;;;5102668;28;20024;-86
2023/05/13 04:11:26;;;;;;;16.63;12.57;;;333.70;2329.60;;;;;;5104156;28;20056;-86
2023/05/13 04:13:52;;;;;;;16.50;12.02;;;333.70;2329.60;;;;;;5102001;28;20032;-87
2023/05/13 04:16:18;;;;;;;17.55;13.27;;;358.40;2329.60;;;;;;5104095;28;20499;-87
2023/05/13 04:18:44;;;;;;;16.27;13.60;;;333.70;2329.60;;;;;;5103653;28;20056;-86
2023/05/13 04:21:10;;;;;;;20.77;15.50;;;333.70;2329.60;;;;;;5116679;28;20020;-86
2023/05/13 04:23:36;;;;;;;15.57;12.27;;;333.70;2329.60;;;;;;5082941;28;20021;-87
2023/05/13 04:26:01;;;;;;;18.83;12.60;;;358.40;2329.60;;;;;;5083147;28;20025;-87
2023/05/13 04:28:27;;;;;;;15.02;13.07;;;333.70;2329.60;;;;;;5083019;28;20051;-87
2023/05/13 04:30:53;;;;;;;20.85;14.05;;;333.50;2329.60;;;;;;5098418;28;20024;-85
2023/05/13 04:33:19;;;;;;;15.40;12.13;;;333.40;2329.60;;;;;;5102261;28;20112;-86
2023/05/13 04:35:45;;;;;;;15.15;11.27;;;333.60;2329.60;;;;;;5102456;28;20468;-87
2023/05/13 04:38:11;;;;;;;11.93;10.65;;;333.50;2329.60;;;;;;5102683;28;20111;-87
2023/05/13 04:40:37;;;;;;;15.73;11.00;;;333.60;2329.60;;;;;;5102535;28;20024;-87
2023/05/13 04:43:03;;;;;;;15.10;13.60;;;333.70;2329.60;;;;;;5103904;28;20027;-86
2023/05/13 04:45:30;;;;;;;17.52;11.65;;;333.70;2329.60;;;;;;5093172;28;20028;-87
2023/05/13 04:47:56;;;;;;;15.80;11.05;;;333.70;2329.60;;;;;;5083046;28;20078;-81
2023/05/13 04:50:22;;;;;;;18.38;11.95;;;358.50;2329.60;;;;;;5089916;28;20044;-86
2023/05/13 04:52:48;;;;;;;14.73;10.82;;;358.40;2329.60;;;;;;5103615;28;20145;-86
2023/05/13 04:55:14;;;;;;;21.98;12.80;;;333.70;2329.60;;;;;;5103049;28;20082;-87
2023/05/13 04:57:40;;;;;;;17.17;12.18;;;358.40;2329.60;;;;;;5103475;28;20091;-86
2023/05/13 05:00:08;;;;;;;14.32;11.40;;;358.50;2329.60;;;;;;5102850;28;20105;-86
2023/05/13 05:02:34;;;;;;;14.98;12.25;;;358.40;2329.60;;;;;;5103800;28;20066;-87
2023/05/13 05:05:00;;;;;;;16.23;13.75;;;358.40;2329.60;;;;;;5102906;28;20032;-86
2023/05/13 05:07:25;;;;;;;17.77;13.40;;;358.50;2329.60;;;;;;5084839;28;20020;-86
2023/05/13 05:09:55;;;;;;;15.60;12.75;;;358.60;2329.60;;;;;;5083530;28;20034;-86
2023/05/13 05:12:21;;;;;;;22.80;11.82;;;358.50;2329.60;;;;;;5101687;28;20119;-86
2023/05/13 05:14:47;;;;;;;19.13;14.13;;;358.50;2329.60;;;;;;5105621;28;20036;-86
2023/05/13 05:17:12;;;;;;;16.60;12.95;;;358.50;2329.60;;;;;;5105473;28;20028;-79
2023/05/13 05:19:39;;;;;;;15.25;13.10;;;358.40;2329.60;;;;;;5102434;28;20467;-86
2023/05/13 05:22:05;;;;;;;20.52;13.98;;;358.40;2329.60;;;;;;5102662;28;20031;-85
2023/05/13 05:24:30;;;;;;;18.40;14.38;;;358.50;2329.60;;;;;;5102699;28;20111;-85
2023/05/13 05:26:56;;;;;;;17.75;13.77;;;358.60;2329.60;;;;;;5102311;28;20055;-86
2023/05/13 05:29:22;;;;;;;17.70;14.82;;;358.70;2329.60;;;;;;5103426;28;20028;-87
2023/05/13 05:31:48;;;;;;;20.40;15.57;;;358.70;2329.60;;;;;;5099317;28;20016;-86
2023/05/13 05:34:14;;;;;;;17.90;14.77;;;358.80;2329.60;;;;;;5102264;28;20134;-87
2023/05/13 05:36:40;;;;;;;19.00;15.02;;;358.80;2329.60;;;;;;5101342;28;20537;-86
2023/05/13 05:39:05;;;;;;;16.65;14.23;;;358.80;2329.60;;;;;;5103088;28;20024;-86
2023/05/13 05:41:32;;;;;;;22.75;15.90;;;358.90;2329.60;;;;;;5101658;28;20438;-86
2023/05/13 05:43:57;;;;;;;22.05;14.88;;;358.90;2329.60;;;;;;5102719;28;20084;-86
2023/05/13 05:46:23;;;;;;;19.50;14.90;;;359.00;2329.60;;;;;;5101729;28;20051;-87
2023/05/13 05:48:49;;;;;;;19.73;14.48;;;359.00;2329.60;;;;;;5102224;28;20384;-86
2023/05/13 05:51:15;;;;;;;20.08;15.00;;;358.90;2329.60;;;;;;5102510;28;20077;-86
2023/05/13 05:53:41;;;;;;;18.45;15.50;;;358.90;2329.60;;;;;;5101832;28;20032;-86
2023/05/13 05:56:07;;;;;;;19.10;15.50;;;358.90;2329.60;;;;;;5102851;28;20034;-87
2023/05/13 05:58:34;;;;;;;19.73;15.35;;;359.00;2329.60;;;;;;5101307;28;20035;-87
2023/05/13 06:01:00;;;;;;;19.65;16.10;;;359.00;2329.60;;;;;;5102479;28;20115;-87
2023/05/13 06:03:27;;;;;;;23.33;15.85;;;359.00;2329.60;;;;;;5102386;28;20051;-87
2023/05/13 06:05:53;;;;;;;20.95;15.57;;;359.10;2329.60;;;;;;5102641;28;20024;-86
2023/05/13 06:08:19;;;;;;;23.10;16.13;;;359.00;2329.60;;;;;;5103191;28;20118;-87
2023/05/13 06:10:45;;;;;;;21.17;16.13;;;359.20;2329.60;;;;;;5102018;28;20024;-87
2023/05/13 06:13:11;;;;;;;22.13;16.67;;;359.30;2329.60;;;;;;5103252;28;20028;-87
2023/05/13 06:15:37;;;;;;;21.83;16.33;;;384.00;2329.60;;;;;;5102966;28;20536;-86
2023/05/13 06:18:04;;;;;;;22.65;16.17;;;384.00;2329.60;;;;;;5102862;28;20024;-86
2023/05/13 06:20:31;;;;;;;20.63;14.77;;;384.20;2329.60;;;;;;5102193;28;20028;-86
2023/05/13 06:22:57;;;;;;;16.63;13.05;;;384.30;2329.60;;;;;;5105271;28;20027;-87
2023/05/13 06:25:23;;;;;;;22.30;13.35;;;384.40;2329.60;;;;;;5104662;28;20055;-87
2023/05/13 06:27:49;;;;;;;19.42;16.05;;;384.40;2329.60;;;;;;5105853;28;20119;-87
2023/05/13 06:30:14;;;;;;;24.83;15.75;;;384.40;2329.60;;;;;;5104649;28;20383;-87
2023/05/13 06:32:40;;;;;;;19.15;14.95;;;384.50;2329.60;;;;;;5105368;28;20024;-86
2023/05/13 06:35:06;;;;;;;18.75;15.35;;;384.40;2329.60;;;;;;5103968;28;20055;-86
2023/05/13 06:37:32;;;;;;;19.40;15.05;;;384.40;2329.60;;;;;;5105014;28;20040;-87
2023/05/13 06:39:58;;;;;;;19.27;14.93;;;384.40;2329.60;;;;;;5103942;28;20020;-87
2023/05/13 06:42:24;;;;;;;20.10;14.38;;;384.40;2329.60;;;;;;5105481;28;20069;-86
2023/05/13 06:44:50;;;;;;;19.95;14.60;;;384.30;2329.60;;;;;;5105503;28;20023;-86
2023/05/13 06:47:16;;;;;;;20.98;15.43;;;384.10;2329.60;;;;;;5107125;28;20032;-86
2023/05/13 06:49:42;;;;;;;20.80;15.75;;;384.20;2329.60;;;;;;5106419;28;20028;-87
2023/05/13 06:52:09;;;;;;;21.35;15.75;;;384.30;2329.60;;;;;;5106490;28;20024;-86
2023/05/13 06:54:35;;;;;;;19.20;13.70;;;384.40;2329.60;;;;;;5105341;28;20028;-86
2023/05/13 06:57:04;;;;;;;17.48;13.27;;;384.60;2329.60;;;;;;5106945;28;20032;-87
2023/05/13 06:59:30;;;;;;;17.42;13.57;;;384.60;2329.60;;;;;;5105067;28;20024;-87
2023/05/13 07:01:56;;;;;;;19.05;12.85;;;384.70;2329.60;;;;;;5105850;28;20216;-86
2023/05/13 07:04:22;;;;;;;19.48;12.55;;;409.70;2355.20;;;;;;5102756;28;20012;-87
2023/05/13 07:06:48;;;;;;;14.57;12.32;;;410.00;2355.20;;;;;;5104871;28;20021;-87
2023/05/13 07:09:13;;;;;;;20.02;13.07;;;410.30;2355.20;;;;;;5102561;28;20036;-87
2023/05/13 07:11:40;;;;;;;15.60;12.63;;;410.40;2355.20;;;;;;5105913;28;20032;-87
2023/05/13 07:14:05;;;;;;;17.45;11.88;;;410.20;2355.20;;;;;;5104230;28;20036;-86
2023/05/13 07:16:31;;;;;;;13.95;11.93;;;410.30;2355.20;;;;;;5104266;28;20032;-87
2023/05/13 07:18:57;;;;;;;15.75;12.48;;;409.90;2355.20;;;;;;5103281;28;20028;-85
2023/05/13 07:21:23;;;;;;;18.73;12.82;;;409.90;2355.20;;;;;;5102566;28;20028;-87
2023/05/13 07:23:49;;;;;;;18.38;11.98;;;410.20;2355.20;;;;;;5102694;28;20032;-86
2023/05/13 07:26:15;;;;;;;15.57;12.02;;;410.30;2355.20;;;;;;5102574;28;20039;-86
2023/05/13 07:28:42;;;;;;;18.98;12.55;;;410.50;2355.20;;;;;;5101591;28;20479;-86
2023/05/13 07:31:08;;;;;;;15.07;12.18;;;435.30;2355.20;;;;;;5081851;28;20082;-86
2023/05/13 07:33:35;;;;;;;13.27;10.95;;;410.50;2355.20;;;;;;5080773;28;20037;-86
2023/05/13 07:36:00;;;;;;;19.73;12.70;;;410.50;2355.20;;;;;;5102057;28;20028;-86
2023/05/13 07:38:26;;;;;;;15.43;12.80;;;435.40;2355.20;;;;;;5102367;28;20020;-86
2023/05/13 07:40:52;;;;;;;14.77;11.73;;;435.60;2355.20;;;;;;5101899;28;20031;-86
2023/05/13 07:43:22;;;;;;;15.95;11.65;;;435.80;2355.20;;;;;;5106123;28;20111;-86
2023/05/13 07:45:51;;;;;;;14.43;10.38;;;436.10;2355.20;;;;;;5092778;28;20035;-85
2023/05/13 07:48:18;;;;;;;15.50;11.63;;;460.80;2380.80;;;;;;5085794;28;20060;-85
2023/05/13 07:50:47;;;;;;;13.60;10.82;;;461.00;2380.80;;;;;;5097554;28;20032;-86
2023/05/13 07:53:13;;;;;;;18.77;11.95;;;461.10;2380.80;;;;;;5089559;28;20113;-86
2023/05/13 07:55:39;;;;;;;14.35;10.88;;;436.00;2355.20;;;;;;5089113;28;20091;-86
2023/05/13 07:58:05;;;;;;;17.23;12.90;;;435.90;2355.20;;;;;;5106636;28;20024;-86
2023/05/13 08:00:31;;;;;;;15.40;11.07;;;435.90;2355.20;;;;;;5088775;28;20025;-86
2023/05/13 08:02:57;;;;;;;15.75;10.70;;;436.10;2355.20;;;;;;5082724;28;20032;-86
2023/05/13 08:05:22;;;;;;;18.95;10.73;;;461.00;2380.80;;;;;;5093992;28;20536;-86
2023/05/13 08:07:48;;;;;;;14.27;11.88;;;461.10;2380.80;;;;;;5105457;28;20111;-86
2023/05/13 08:10:14;;;;;;;18.52;12.43;;;461.20;2380.80;;;;;;5101888;28;20484;-86
2023/05/13 08:12:40;;;;;;;13.25;10.15;;;461.40;2380.80;;;;;;5104068;28;20024;-87
2023/05/13 08:15:07;;;;;;;13.07;8.77;;;461.30;2380.80;;;;;;5101799;28;20036;-86
2023/05/13 08:17:34;;;;;;;13.18;9.23;;;461.30;2380.80;;;;;;5086267;28;20065;-87
2023/05/13 08:20:20;;;;;;;14.13;9.65;;;461.30;2380.80;;;;;;5084897;28;20027;-87
2023/05/13 08:22:46;;;;;;;15.13;8.95;;;461.30;2380.80;;;;;;5066430;28;20132;-87
2023/05/13 08:25:12;;;;;;;15.45;9.45;;;461.40;2380.80;;;;;;5064683;28;20029;-86
2023/05/13 08:27:38;;;;;;;13.68;8.70;;;461.50;2380.80;;;;;;5066250;28;20039;-85
2023/05/13 08:30:07;;;;;;;11.77;8.75;;;461.30;2380.80;;;;;;5065360;28;20133;-87
2023/05/13 08:32:33;;;;;;;14.25;9.40;;;461.30;2380.80;;;;;;5066029;28;20029;-86
2023/05/13 08:35:00;;;;;;;12.07;9.95;;;461.00;2380.80;;;;;;5060946;28;20052;-86
2023/05/13 08:38:16;;;;;;;18.27;10.43;;;461.20;2380.80;;;;;;5063455;28;20032;-90
2023/05/13 08:41:15;;;;;;;11.02;8.45;;;461.50;2380.80;;;;;;5058490;28;20029;-89
2023/05/13 08:44:17;;;;;;;12.98;9.00;;;461.50;2380.80;;;;;;5020367;28;20034;-88
2023/05/13 08:47:01;;;;;;;11.52;8.00;;;486.40;2380.80;;;;;;5046143;28;20052;-89
2023/05/13 08:49:28;;;;;;;12.20;8.52;;;486.50;2380.80;;;;;;5044300;28;20037;-87
2023/05/13 08:51:54;;;;;;;11.10;7.97;;;486.70;2380.80;;;;;;5045771;28;20033;-85
2023/05/13 08:54:20;;;;;;;9.63;7.80;;;486.90;2380.80;;;;;;5061887;28;20040;-85
2023/05/13 08:56:46;;;;;;;10.68;7.53;;;486.80;2380.80;;;;;;5085021;28;20021;-86
2023/05/13 08:59:13;;;;;;;11.45;8.20;;;486.90;2380.80;;;;;;5072130;28;20020;-88
2023/05/13 09:01:39;;;;;;;11.20;8.65;;;487.00;2380.80;;;;;;5088460;28;20043;-87
2023/05/13 09:04:09;;;;;;;9.52;7.40;;;512.40;2380.80;;;;;;5107250;28;20047;-88
2023/05/13 09:06:36;;;;;;;10.95;7.68;;;512.20;2380.80;;;;;;5084184;28;20025;-89
2023/05/13 09:09:03;;;;;;;8.55;6.70;;;512.50;2380.80;;;;;;5057635;28;20029;-88
2023/05/13 09:11:29;;;;;;;8.68;6.70;;;512.80;2380.80;;;;;;5055222;28;20074;-89
2023/05/13 09:14:00;;;;;;;9.00;7.32;;;537.60;2406.40;;;;;;5060941;28;20037;-83
2023/05/13 09:16:27;;;;;;;10.95;7.32;;;537.90;2406.40;;;;;;5061278;28;20067;-82
2023/05/13 09:19:04;;;;;;;11.70;8.60;;;538.10;2406.40;;;;;;5069181;28;20036;-85
2023/05/13 09:21:31;;;;;;;8.65;5.22;;;538.40;2406.40;;;;;;5066331;28;20033;-83
2023/05/13 09:24:20;;;;;;;12.00;7.35;;;563.20;2432.00;;;;;;5043480;28;20055;-85
2023/05/13 09:26:47;;;;;;;12.68;8.55;;;563.30;2432.00;;;;;;5052915;28;20139;-84
2023/05/13 09:29:18;;;;;;;10.35;7.85;;;563.40;2432.00;;;;;;5068296;28;20056;-82
2023/05/13 09:31:45;;;;;;;11.27;7.25;;;563.60;2432.00;;;;;;5047989;28;20028;-84
2023/05/13 09:34:11;;;;;;;8.40;6.03;;;563.60;2432.00;;;;;;5052815;28;20135;-84
2023/05/13 09:36:38;;;;;;;9.38;6.10;;;563.30;2432.00;;;;;;5067550;28;20137;-84
2023/05/13 09:39:04;;;;;;;13.57;7.97;;;538.40;2406.40;;;;;;5041955;28;20039;-84
2023/05/13 09:41:30;;;;;;;15.23;8.57;;;538.20;2406.40;;;;;;5093544;28;20472;-84
2023/05/13 09:44:03;;;;;;;11.57;6.20;;;537.90;2406.40;;;;;;5101762;28;20039;-80
2023/05/13 09:46:32;;;;;;;10.38;6.93;;;537.80;2406.40;;;;;;5092792;28;20020;-81
2023/05/13 09:48:58;;;;;;;13.43;8.35;;;537.60;2406.40;;;;;;5100591;28;20016;-81
2023/05/13 09:51:30;;;;;;;10.38;6.63;;;512.90;2380.80;;;;;;5099485;28;20130;-82
2023/05/13 09:54:06;;;;;;;10.52;6.63;;;512.90;2380.80;;;;;;5117072;28;20163;-82
2023/05/13 09:56:34;;;;;;;16.60;11.43;;;512.70;2380.80;;;;;;5096723;28;20024;-81
2023/05/13 09:59:03;;;;;;;20.52;15.10;;;512.70;2380.80;;;;;;5098703;28;20055;-80
2023/05/13 10:01:29;;;;;;;14.98;10.63;;;512.60;2380.80;;;;;;5102728;28;20024;-80
2023/05/13 10:03:58;;;;;;;15.52;10.10;;;512.40;2380.80;;;;;;5105684;28;20380;-82
2023/05/13 10:06:27;;;;;;;10.00;6.05;;;512.10;2380.80;;;;;;5101917;28;20079;-80
2023/05/13 10:08:56;;;;;;;8.15;5.93;;;487.30;2380.80;;;;;;5097777;28;20082;-82
2023/05/13 10:11:23;;;;;;;11.48;5.63;;;487.10;2380.80;;;;;;5096834;28;20482;-81
2023/05/13 10:13:54;;;;;;;8.05;6.43;;;487.00;2380.80;;;;;;5095631;28;20032;-81
2023/05/13 10:16:22;;;;;;;8.45;6.97;;;486.90;2380.80;;;;;;5097484;28;20028;-83
2023/05/13 10:18:49;;;;;;;9.35;5.97;;;486.70;2380.80;;;;;;5095972;28;20024;-85
2023/05/13 10:21:15;;;;;;;10.20;5.78;;;486.70;2380.80;;;;;;5092740;28;20020;-84
2023/05/13 10:23:41;;;;;;;10.70;9.15;;;486.70;2380.80;;;;;;5098791;28;20020;-84
2023/05/13 10:26:08;;;;;;;14.63;8.40;;;486.50;2380.80;;;;;;5100165;28;20038;-85
2023/05/13 10:28:36;;;;;;;10.98;7.40;;;486.80;2380.80;;;;;;5101942;28;20022;-83
2023/05/13 10:31:01;;;;;;;13.00;7.63;;;486.80;2380.80;;;;;;5103139;28;20459;-84
2023/05/13 10:33:28;;;;;;;12.73;8.85;;;487.00;2380.80;;;;;;5104316;28;20044;-85
2023/05/13 10:36:32;;;;;;;13.38;10.18;;;487.20;2380.80;;;;;;5104972;28;20407;-85
2023/05/13 10:39:06;;;;;;;12.75;9.48;;;486.90;2380.80;;;;;;5108744;28;20012;-87
2023/05/13 10:42:19;;;;;;;13.95;9.20;;;487.20;2380.80;;;;;;5106941;28;20031;-83
2023/05/13 10:44:51;;;;;;;12.60;8.53;;;487.30;2380.80;;;;;;5063267;28;20044;-89
2023/05/13 10:47:26;;;;;;;11.57;8.70;;;487.30;2380.80;;;;;;4992167;28;20302;-83
2023/05/13 10:49:53;;;;;;;14.07;7.88;;;487.30;2380.80;;;;;;5000016;28;20122;-87
2023/05/13 10:52:19;;;;;;;11.48;8.77;;;512.00;2380.80;;;;;;5007635;28;20038;-86
2023/05/13 10:55:03;;;;;;;13.95;9.18;;;512.40;2380.80;;;;;;4997139;28;20030;-81
2023/05/13 10:58:15;;;;;;;15.63;9.65;;;512.90;2380.80;;;;;;5008562;28;20041;-81
2023/05/13 11:00:45;;;;;;;12.00;8.43;;;537.60;2406.40;;;;;;4942509;29;20020;-84
2023/05/13 11:03:31;;;;;;;10.35;7.10;;;537.70;2406.40;;;;;;4961033;29;20059;-81
2023/05/13 11:06:37;;;;;;;11.38;7.13;;;537.70;2406.40;;;;;;4956971;29;20044;-88
2023/05/13 11:09:50;;;;;;;10.27;6.10;;;537.80;2406.40;;;;;;4880353;29;20034;-88
2023/05/13 11:13:13;;;;;;;7.68;5.05;;;537.70;2406.40;;;;;;4846261;29;20046;-90
2023/05/13 11:16:31;;;;;;;9.93;7.60;;;512.90;2380.80;;;;;;4837254;29;20085;-90
2023/05/13 11:19:00;;;;;;;11.80;7.00;;;512.90;2380.80;;;;;;4812047;29;20050;-88
2023/05/13 11:21:55;;;;;;;7.72;5.53;;;512.70;2380.80;;;;;;4795971;30;20054;-89
2023/05/13 11:24:22;;;;;;;9.80;6.70;;;512.60;2380.80;;;;;;4761708;30;20071;-88
2023/05/13 11:26:49;;;;;;;12.77;9.15;;;512.40;2380.80;;;;;;4772092;30;20048;-88
2023/05/13 11:29:34;;;;;;;13.45;9.45;;;512.40;2380.80;;;;;;4771009;30;20036;-87
2023/05/13 11:32:06;;;;;;;15.20;12.07;;;512.30;2380.80;;;;;;4802828;30;20044;-87
2023/05/13 11:34:33;;;;;;;11.13;9.30;;;512.30;2380.80;;;;;;4780626;30;20085;-85
2023/05/13 11:37:11;;;;;;;12.00;9.20;;;487.10;2380.80;;;;;;4794048;29;20047;-88
2023/05/13 11:39:42;;;;;;;12.95;8.75;;;512.20;2380.80;;;;;;4812824;29;20077;-87
2023/05/13 11:42:14;;;;;;;10.55;7.55;;;512.20;2380.80;;;;;;4831360;29;20047;-89
2023/05/13 11:44:51;;;;;;;14.75;10.05;;;512.20;2380.80;;;;;;4857341;29;20085;-88
2023/05/13 11:47:33;;;;;;;20.98;10.32;;;512.30;2380.80;;;;;;4924699;29;20039;-88
2023/05/13 11:50:16;;;;;;;15.82;12.05;;;512.30;2380.80;;;;;;5017619;28;20068;-87
2023/05/13 11:52:42;;;;;;;12.63;8.57;;;512.40;2380.80;;;;;;5036571;28;20014;-88
2023/05/13 11:55:51;;;;;;;16.00;11.48;;;512.30;2380.80;;;;;;5039610;28;20069;-88
2023/05/13 12:02:09;;;;;;;18.45;14.50;;;512.20;2380.80;;;;;;4976198;28;20067;-90
2023/05/13 12:04:42;;;;;;;12.85;7.57;;;512.20;2380.80;;;;;;4960170;29;20056;-87
2023/05/13 12:07:24;;;;;;;10.65;6.80;;;512.20;2380.80;;;;;;4936454;29;20044;-87
2023/05/13 12:09:57;;;;;;;13.18;9.07;;;512.10;2380.80;;;;;;4918736;29;20041;-88
2023/05/13 12:12:26;;;;;;;12.65;8.27;;;512.20;2380.80;;;;;;4906137;29;20049;-87
2023/05/13 12:14:58;;;;;;;10.18;7.75;;;512.20;2380.80;;;;;;4906096;29;20055;-87
2023/05/13 12:17:27;;;;;;;13.75;7.60;;;512.30;2380.80;;;;;;4945446;29;20054;-88